Time;durP1;ratioP1;P1;durP2;ratioP2;P2;SDS_P1;SDS_P2;PMS_P1;PMS_P2;Temp;Humidity;BMP_temperature;BMP_pressure;BME280_temperature;BME280_humidity;BME280_pressure;Samples;Min_cycle;Max_cycle;Signal;HPM_P1;HPM_P2
2021/09/13 00:01:36;;;;;;;0.73;0.73;;;;;;;15.59;65.20;99047.69;5128685;27;42092;-80
2021/09/13 00:04:04;;;;;;;0.60;0.60;;;;;;;15.56;65.60;99044.44;5128728;27;40166;-80
2021/09/13 00:06:32;;;;;;;1.30;0.90;;;;;;;15.49;65.59;99033.34;5129772;27;41902;-80
2021/09/13 00:08:59;;;;;;;0.93;0.90;;;;;;;15.55;65.71;99048.06;5130068;27;43637;-79
2021/09/13 00:11:28;;;;;;;1.10;0.70;;;;;;;15.52;65.54;99049.13;5129943;27;43212;-80
2021/09/13 00:13:56;;;;;;;1.77;0.93;;;;;;;15.50;65.74;99051.06;5111368;27;40307;-81
2021/09/13 00:16:24;;;;;;;1.00;1.00;;;;;;;15.49;65.47;99048.50;5130473;27;41861;-80
2021/09/13 00:18:53;;;;;;;0.60;0.60;;;;;;;15.37;65.60;99029.81;5129928;27;43846;-80
2021/09/13 00:21:21;;;;;;;0.63;0.57;;;;;;;15.44;65.53;99047.06;5128928;27;43005;-80
2021/09/13 00:23:49;;;;;;;0.70;0.70;;;;;;;15.38;65.73;99044.03;5111532;27;39875;-79
2021/09/13 00:26:17;;;;;;;1.17;1.00;;;;;;;15.41;65.66;99051.78;5129458;27;42057;-82
2021/09/13 00:28:46;;;;;;;0.80;0.80;;;;;;;15.36;65.90;99052.16;5111782;27;41712;-80
2021/09/13 00:31:16;;;;;;;0.70;0.70;;;;;;;15.34;65.85;99047.91;5111779;27;41225;-79
2021/09/13 00:33:44;;;;;;;1.00;0.77;;;;;;;15.27;65.71;99046.69;5127446;27;39040;-80
2021/09/13 00:36:12;;;;;;;0.77;0.77;;;;;;;15.19;65.91;99038.44;5111122;27;40691;-80
2021/09/13 00:38:40;;;;;;;1.00;0.90;;;;;;;15.22;65.56;99057.72;5129885;27;43059;-81
2021/09/13 00:41:09;;;;;;;0.97;0.77;;;;;;;15.20;66.06;99050.81;5110716;27;41284;-80
2021/09/13 00:43:37;;;;;;;0.67;0.63;;;;;;;15.18;65.89;99050.94;5111286;27;39076;-80
2021/09/13 00:46:06;;;;;;;2.20;0.83;;;;;;;15.08;65.90;99028.63;5128698;27;42058;-79
2021/09/13 00:48:34;;;;;;;0.70;0.70;;;;;;;15.18;66.30;99040.25;5129139;27;43725;-80
2021/09/13 00:51:01;;;;;;;0.63;0.60;;;;;;;15.16;66.27;99047.53;5128633;27;41209;-80
2021/09/13 00:53:31;;;;;;;1.00;0.80;;;;;;;15.16;66.11;99044.88;5110810;27;39227;-79
2021/09/13 00:56:00;;;;;;;0.87;0.70;;;;;;;15.14;66.18;99038.78;5131952;27;42510;-79
2021/09/13 00:58:30;;;;;;;0.90;0.90;;;;;;;15.12;65.95;99042.53;5133094;27;42893;-79
2021/09/13 01:01:03;;;;;;;0.83;0.80;;;;;;;15.10;65.81;99042.66;5132741;27;41568;-80
2021/09/13 01:03:33;;;;;;;0.80;0.77;;;;;;;15.08;65.83;99044.63;5130765;27;40937;-80
2021/09/13 01:06:00;;;;;;;0.53;0.50;;;;;;;15.06;66.15;99036.75;5131899;27;42107;-79
2021/09/13 01:08:28;;;;;;;0.80;0.73;;;;;;;14.91;66.05;99013.94;5115223;27;42057;-80
2021/09/13 01:10:57;;;;;;;0.50;0.50;;;;;;;15.04;66.01;99037.81;5114120;27;42271;-80
2021/09/13 01:13:24;;;;;;;0.70;0.70;;;;;;;15.01;66.41;99027.38;5113240;27;40937;-79
2021/09/13 01:15:52;;;;;;;0.80;0.80;;;;;;;15.01;66.11;99027.38;5114801;27;41667;-80
2021/09/13 01:18:20;;;;;;;0.70;0.70;;;;;;;14.99;66.07;99031.97;5131610;27;42988;-80
2021/09/13 01:20:49;;;;;;;0.90;0.67;;;;;;;14.94;66.30;99031.50;5131210;27;41153;-80
2021/09/13 01:23:24;;;;;;;0.80;0.60;;;;;;;14.92;66.39;99028.97;5114394;27;40299;-80
2021/09/13 01:25:54;;;;;;;0.60;0.60;;;;;;;14.84;66.19;99017.16;5114621;27;41059;-79
2021/09/13 01:28:24;;;;;;;1.30;0.80;;;;;;;14.83;66.42;99024.34;5114546;27;42015;-80
2021/09/13 01:30:52;;;;;;;0.60;0.60;;;;;;;14.84;66.65;99030.50;5114655;27;41624;-80
2021/09/13 01:33:22;;;;;;;1.23;0.70;;;;;;;14.81;66.61;99026.28;5130755;27;40294;-80
2021/09/13 01:35:50;;;;;;;0.63;0.63;;;;;;;14.77;66.60;99015.97;5114268;27;40781;-80
2021/09/13 01:38:22;;;;;;;0.60;0.60;;;;;;;14.65;66.19;99005.28;5114281;27;41937;-80
2021/09/13 01:40:49;;;;;;;1.30;0.77;;;;;;;14.74;66.36;99025.03;5114720;27;41326;-80
2021/09/13 01:43:17;;;;;;;0.67;0.60;;;;;;;14.72;66.59;99025.16;5131440;27;41087;-81
2021/09/13 01:45:45;;;;;;;0.77;0.77;;;;;;;14.70;66.34;99018.25;5114257;27;40937;-79
2021/09/13 01:48:13;;;;;;;0.83;0.60;;;;;;;14.70;66.57;99032.44;5131273;27;42807;-80
2021/09/13 01:50:42;;;;;;;1.10;0.83;;;;;;;14.70;66.67;99031.59;5114960;27;41514;-80
2021/09/13 01:53:10;;;;;;;0.73;0.73;;;;;;;14.67;66.50;99027.34;5113431;27;38389;-80
2021/09/13 01:55:39;;;;;;;1.00;0.70;;;;;;;14.66;66.35;99028.28;5114529;27;41182;-79
2021/09/13 01:58:08;;;;;;;0.60;0.60;;;;;;;14.65;66.39;99037.25;5113397;27;41611;-79
2021/09/13 02:00:36;;;;;;;0.57;0.57;;;;;;;14.64;66.41;99034.72;5129707;27;43120;-80
2021/09/13 02:03:05;;;;;;;0.80;0.80;;;;;;;14.63;66.39;99033.84;5130252;27;41295;-79
2021/09/13 02:05:44;;;;;;;0.77;0.77;;;;;;;14.63;66.88;99033.00;5130229;27;42746;-80
2021/09/13 02:08:13;;;;;;;0.60;0.53;;;;;;;14.22;66.79;98969.47;5113530;27;42177;-79
2021/09/13 02:10:42;;;;;;;0.87;0.87;;;;;;;14.57;66.71;99033.47;5113538;27;41206;-80
2021/09/13 02:13:10;;;;;;;1.00;0.70;;;;;;;14.42;66.56;99008.84;5130331;27;40033;-80
2021/09/13 02:15:38;;;;;;;0.70;0.70;;;;;;;14.51;66.79;99024.13;5114344;27;40686;-81
2021/09/13 02:18:06;;;;;;;0.83;0.77;;;;;;;14.49;67.03;99031.38;5130213;27;43291;-80
2021/09/13 02:20:38;;;;;;;0.90;0.73;;;;;;;14.47;67.38;99027.97;5114271;27;41386;-79
2021/09/13 02:23:06;;;;;;;0.60;0.57;;;;;;;14.46;67.23;99031.63;5129844;27;40310;-81
2021/09/13 02:25:35;;;;;;;1.80;1.00;;;;;;;14.44;67.07;99022.91;5113688;27;40409;-80
2021/09/13 02:28:04;;;;;;;0.80;0.70;;;;;;;14.42;67.38;99030.16;5113462;27;42795;-78
2021/09/13 02:30:32;;;;;;;0.63;0.63;;;;;;;14.40;67.30;99033.91;5113465;27;41175;-79
2021/09/13 02:32:59;;;;;;;0.60;0.60;;;;;;;14.37;67.21;99026.94;5130344;27;40278;-79
2021/09/13 02:35:29;;;;;;;0.70;0.70;;;;;;;14.36;67.14;99025.25;5130841;27;41846;-79
2021/09/13 02:37:57;;;;;;;0.60;0.60;;;;;;;14.33;67.43;99036.16;5130924;27;42755;-79
2021/09/13 02:40:25;;;;;;;0.70;0.70;;;;;;;14.29;67.39;99032.88;5113287;27;41375;-80
2021/09/13 02:42:52;;;;;;;0.97;0.90;;;;;;;14.25;67.42;99034.03;5112533;27;40314;-80
2021/09/13 02:45:22;;;;;;;0.50;0.50;;;;;;;14.13;67.45;99018.13;5112774;27;40934;-79
2021/09/13 02:47:50;;;;;;;0.83;0.83;;;;;;;14.18;67.36;99032.81;5129943;27;43704;-79
2021/09/13 02:50:18;;;;;;;0.53;0.53;;;;;;;14.16;67.21;99033.88;5112752;27;41345;-80
2021/09/13 02:52:46;;;;;;;0.70;0.70;;;;;;;14.15;67.38;99026.84;5130439;27;40985;-80
2021/09/13 02:55:14;;;;;;;0.80;0.80;;;;;;;14.16;67.16;99028.56;5112960;27;40909;-80
2021/09/13 02:57:43;;;;;;;2.00;0.80;;;;;;;14.12;67.01;99019.09;5112746;27;41836;-79
2021/09/13 03:00:11;;;;;;;0.63;0.60;;;;;;;14.16;67.00;99023.22;5130212;27;43326;-80
2021/09/13 03:02:48;;;;;;;0.50;0.50;;;;;;;14.16;67.39;99021.41;5112667;27;39289;-79
2021/09/13 03:05:16;;;;;;;0.70;0.60;;;;;;;14.15;67.29;99016.22;5129321;27;42591;-80
2021/09/13 03:07:44;;;;;;;1.33;0.70;;;;;;;14.13;67.44;99018.13;5131039;27;43895;-80
2021/09/13 03:10:12;;;;;;;0.50;0.50;;;;;;;13.99;67.17;98996.03;5129936;27;41137;-80
2021/09/13 03:12:40;;;;;;;0.83;0.80;;;;;;;14.00;67.31;98995.06;5112077;27;38903;-79
2021/09/13 03:15:10;;;;;;;0.50;0.50;;;;;;;14.05;67.41;99016.03;5112982;27;40896;-80
2021/09/13 03:17:39;;;;;;;0.70;0.60;;;;;;;13.98;67.58;99010.31;5130076;27;42955;-79
2021/09/13 03:20:10;;;;;;;0.60;0.60;;;;;;;13.97;67.58;99008.59;5113395;27;41603;-80
2021/09/13 03:22:38;;;;;;;0.83;0.40;;;;;;;13.65;67.45;98964.88;5112877;27;39197;-80
2021/09/13 03:25:07;;;;;;;0.80;0.63;;;;;;;13.89;67.69;99011.00;5130146;27;42143;-80
2021/09/13 03:27:35;;;;;;;0.73;0.73;;;;;;;13.86;67.42;99007.69;5129194;27;42934;-79
2021/09/13 03:30:07;;;;;;;2.27;0.80;;;;;;;13.78;67.60;99008.28;5112877;27;41168;-79
2021/09/13 03:32:35;;;;;;;0.67;0.67;;;;;;;13.79;68.11;99017.09;5128361;27;40824;-80
2021/09/13 03:35:06;;;;;;;1.27;1.00;;;;;;;13.63;67.85;98998.75;5130125;27;42461;-78
2021/09/13 03:37:35;;;;;;;0.90;0.80;;;;;;;13.71;67.73;99017.69;5112879;27;41940;-79
2021/09/13 03:40:03;;;;;;;1.00;0.90;;;;;;;13.66;67.76;99025.13;5128824;27;42642;-80
2021/09/13 03:42:31;;;;;;;0.70;0.70;;;;;;;13.62;67.81;99018.31;5128240;27;42077;-80
2021/09/13 03:44:58;;;;;;;0.83;0.80;;;;;;;13.53;68.31;99008.34;5130326;27;42823;-80
2021/09/13 03:47:45;;;;;;;1.63;1.00;;;;;;;13.59;68.38;99023.88;5128424;27;43049;-80
2021/09/13 03:50:13;;;;;;;1.33;1.23;;;;;;;13.55;68.01;99028.56;5112713;27;41054;-81
2021/09/13 03:52:42;;;;;;;0.60;0.60;;;;;;;13.43;67.91;99007.31;5129028;27;39998;-80
2021/09/13 03:55:11;;;;;;;0.97;0.97;;;;;;;13.52;68.15;99027.94;5112230;27;42052;-79
2021/09/13 03:57:38;;;;;;;0.93;0.77;;;;;;;13.51;68.25;99021.75;5129422;27;42868;-80
2021/09/13 04:00:07;;;;;;;0.77;0.67;;;;;;;13.49;68.24;99026.34;5130311;27;42526;-79
2021/09/13 04:02:42;;;;;;;0.70;0.60;;;;;;;13.45;67.96;99021.38;5129001;27;39251;-79
2021/09/13 04:05:13;;;;;;;0.67;0.67;;;;;;;13.45;68.75;99021.38;5128733;27;41960;-80
2021/09/13 04:08:07;;;;;;;0.80;0.77;;;;;;;13.43;68.57;99028.59;5111800;27;42819;-81
2021/09/13 04:11:06;;;;;;;1.30;0.83;;;;;;;13.41;68.49;99035.84;5111673;27;41129;-80
2021/09/13 04:13:50;;;;;;;0.50;0.50;;;;;;;13.39;68.35;99037.75;5128593;27;40128;-80
2021/09/13 04:16:29;;;;;;;1.20;0.90;;;;;;;13.35;68.74;99031.81;5129504;27;42884;-80
2021/09/13 04:19:15;;;;;;;0.90;0.80;;;;;;;13.34;68.62;99031.94;5128869;27;41949;-79
2021/09/13 04:22:06;;;;;;;0.60;0.60;;;;;;;13.32;68.52;99026.72;5126337;27;43263;-80
2021/09/13 04:24:49;;;;;;;1.00;0.70;;;;;;;13.29;68.75;99022.44;5112351;27;38823;-81
2021/09/13 04:27:33;;;;;;;1.33;1.10;;;;;;;13.28;69.27;99018.09;5111653;27;40773;-80
2021/09/13 04:30:27;;;;;;;0.77;0.70;;;;;;;13.28;69.04;99025.22;5115278;27;43058;-79
2021/09/13 04:33:13;;;;;;;1.27;1.17;;;;;;;13.27;69.45;99015.53;5131482;27;41360;-80
2021/09/13 04:36:15;;;;;;;0.77;0.70;;;;;;;13.25;69.26;99022.75;5115200;27;39848;-79
2021/09/13 04:38:59;;;;;;;0.70;0.63;;;;;;;13.24;69.38;99018.41;5100116;27;41965;-79
2021/09/13 04:41:44;;;;;;;0.70;0.70;;;;;;;13.24;69.17;99027.22;5115593;27;41940;-80
2021/09/13 04:44:39;;;;;;;0.80;0.80;;;;;;;13.25;70.34;99026.28;5115343;27;42431;-80
2021/09/13 04:47:20;;;;;;;1.00;0.83;;;;;;;13.26;70.19;99022.66;5132103;27;39982;-80
2021/09/13 04:50:12;;;;;;;0.80;0.80;;;;;;;13.28;70.16;99026.06;5130832;27;42452;-79
2021/09/13 04:53:03;;;;;;;1.00;0.90;;;;;;;13.28;70.35;99026.06;5115174;27;41937;-81
2021/09/13 04:55:30;;;;;;;0.83;0.83;;;;;;;13.30;70.44;99028.63;5114433;27;41503;-79
2021/09/13 04:58:00;;;;;;;1.23;1.00;;;;;;;13.33;70.25;99035.53;5131154;27;40312;-80
2021/09/13 05:00:28;;;;;;;1.03;0.70;;;;;;;13.35;70.57;99025.66;5114193;27;40758;-80
2021/09/13 05:02:56;;;;;;;0.87;0.70;;;;;;;13.34;70.43;99034.59;5114308;27;41997;-79
2021/09/13 05:05:23;;;;;;;1.30;1.13;;;;;;;13.36;70.61;99032.63;5132185;27;42480;-80
2021/09/13 05:07:52;;;;;;;0.70;0.70;;;;;;;13.36;70.94;99027.31;5131859;27;39294;-80
2021/09/13 05:10:19;;;;;;;1.00;0.90;;;;;;;13.37;70.86;99029.03;5113780;27;42143;-80
2021/09/13 05:12:47;;;;;;;0.80;0.80;;;;;;;13.38;70.28;99028.06;5112748;27;41631;-80
2021/09/13 05:15:20;;;;;;;0.63;0.50;;;;;;;13.39;70.51;99033.28;5114100;27;41546;-80
2021/09/13 05:17:48;;;;;;;1.07;1.00;;;;;;;13.39;70.61;99032.44;5113642;27;39317;-80
2021/09/13 05:20:15;;;;;;;0.90;0.80;;;;;;;13.41;70.65;99039.34;5130758;27;43019;-80
2021/09/13 05:22:44;;;;;;;0.80;0.67;;;;;;;13.34;70.34;99021.28;5131836;27;43118;-81
2021/09/13 05:25:13;;;;;;;1.10;1.00;;;;;;;13.44;70.43;99040.94;5113505;27;41644;-81
2021/09/13 05:27:41;;;;;;;0.73;0.70;;;;;;;13.43;70.37;99036.59;5114479;27;40188;-79
2021/09/13 05:30:10;;;;;;;1.00;0.70;;;;;;;13.45;70.31;99037.34;5131238;27;40975;-80
2021/09/13 05:32:39;;;;;;;0.73;0.73;;;;;;;13.48;70.13;99034.44;5131138;27;42304;-79
2021/09/13 05:35:08;;;;;;;1.40;1.00;;;;;;;13.46;70.15;99031.06;5131719;27;43377;-79
2021/09/13 05:37:36;;;;;;;0.70;0.70;;;;;;;13.56;69.86;99045.38;5129252;27;39940;-79
2021/09/13 05:40:06;;;;;;;0.87;0.87;;;;;;;13.63;70.02;99057.28;5130419;27;41930;-80
2021/09/13 05:42:35;;;;;;;0.60;0.60;;;;;;;13.72;69.75;99055.78;5113905;27;42689;-80
2021/09/13 05:45:06;;;;;;;0.90;0.90;;;;;;;13.81;69.66;99055.97;5114355;27;41264;-79
2021/09/13 05:47:35;;;;;;;0.70;0.70;;;;;;;13.93;69.25;99055.06;5130867;27;41537;-79
2021/09/13 05:50:06;;;;;;;0.40;0.40;;;;;;;13.95;69.44;99037.19;5131345;27;41948;-79
2021/09/13 05:52:34;;;;;;;0.80;0.80;;;;;;;14.17;69.08;99056.91;5112570;27;41731;-80
2021/09/13 05:55:02;;;;;;;1.00;0.80;;;;;;;14.29;69.55;99050.66;5131038;27;43297;-80
2021/09/13 05:57:30;;;;;;;0.73;0.73;;;;;;;14.41;69.30;99049.78;5131989;27;40888;-79
2021/09/13 05:59:57;;;;;;;0.90;0.90;;;;;;;14.54;68.96;99061.22;5114463;27;41110;-79
2021/09/13 06:02:27;;;;;;;0.70;0.60;;;;;;;14.64;68.90;99056.03;5103868;27;42047;-80
2021/09/13 06:05:13;;;;;;;0.67;0.67;;;;;;;14.84;69.10;99066.00;5129041;27;42643;-78
2021/09/13 06:07:41;;;;;;;1.57;0.90;;;;;;;14.91;69.53;99047.75;5111751;27;38952;-82
2021/09/13 06:10:12;;;;;;;0.93;0.80;;;;;;;15.04;69.03;99051.16;5111131;27;40780;-83
2021/09/13 06:12:41;;;;;;;1.47;1.07;;;;;;;15.24;69.13;99061.13;5110790;27;43186;-85
2021/09/13 06:15:11;;;;;;;1.13;0.90;;;;;;;15.29;69.24;99058.09;5111934;27;41127;-84
2021/09/13 06:17:43;;;;;;;0.80;0.80;;;;;;;15.52;69.33;99074.97;5132337;27;41122;-83
2021/09/13 06:20:16;;;;;;;1.20;0.90;;;;;;;15.69;68.95;99071.84;5133300;27;42721;-83
2021/09/13 06:22:46;;;;;;;1.67;1.20;;;;;;;15.87;69.01;99074.84;5129750;27;43289;-80
2021/09/13 06:25:17;;;;;;;1.50;0.90;;;;;;;16.01;68.76;99067.41;5113914;27;41406;-77
2021/09/13 06:27:46;;;;;;;5.07;3.83;;;;;;;16.19;68.63;99069.56;5132728;27;40106;-82
2021/09/13 06:30:14;;;;;;;3.27;2.47;;;;;;;16.26;68.45;99065.41;5115770;27;41050;-85
2021/09/13 06:32:44;;;;;;;2.33;1.60;;;;;;;16.42;68.67;99080.06;5132581;27;42160;-86
2021/09/13 06:35:13;;;;;;;1.73;1.37;;;;;;;16.44;68.39;99064.72;5150721;27;42998;-78
2021/09/13 06:37:55;;;;;;;2.37;1.00;;;;;;;16.60;68.01;99074.97;5115281;27;39277;-84
2021/09/13 06:40:23;;;;;;;1.47;1.17;;;;;;;16.77;67.86;99081.63;5128731;27;42080;-80
2021/09/13 06:42:51;;;;;;;1.30;1.20;;;;;;;16.83;67.82;99065.91;5111531;27;42743;-81
2021/09/13 06:45:23;;;;;;;2.10;1.80;;;;;;;17.06;67.20;99084.53;5115264;27;41327;-82
2021/09/13 06:47:51;;;;;;;1.53;1.40;;;;;;;17.33;67.39;99091.97;5118807;27;40729;-81
2021/09/13 06:50:23;;;;;;;1.90;1.50;;;;;;;17.50;66.55;99096.72;5116887;27;42692;-80
2021/09/13 06:52:53;;;;;;;1.30;1.13;;;;;;;17.64;66.36;99088.38;5132321;27;42055;-86
2021/09/13 06:55:20;;;;;;;1.97;1.47;;;;;;;17.76;65.80;99081.94;5132343;27;41919;-82
2021/09/13 06:57:49;;;;;;;1.60;1.30;;;;;;;17.98;65.70;99096.09;5150854;27;40706;-80
2021/09/13 07:00:18;;;;;;;3.00;1.70;;;;;;;18.07;65.55;99085.41;5145770;27;41989;-83
2021/09/13 07:02:47;;;;;;;1.40;1.33;;;;;;;18.37;65.13;99097.03;5125948;27;42591;-80
2021/09/13 07:05:15;;;;;;;1.93;1.73;;;;;;;18.50;64.92;99092.25;5121982;27;41722;-85
2021/09/13 07:07:45;;;;;;;1.90;1.33;;;;;;;18.89;64.08;99085.09;5135712;27;40246;-86
2021/09/13 07:10:17;;;;;;;1.40;1.30;;;;;;;19.22;63.29;99110.59;5127715;27;42365;-79
2021/09/13 07:12:46;;;;;;;1.73;1.40;;;;;;;19.48;62.75;99102.75;5125394;28;41965;-82
2021/09/13 07:15:15;;;;;;;1.53;1.43;;;;;;;19.75;62.72;99118.97;5112411;27;41611;-82
2021/09/13 07:17:44;;;;;;;1.00;1.00;;;;;;;19.93;61.88;99119.00;5126750;27;39466;-78
2021/09/13 07:20:13;;;;;;;1.23;1.10;;;;;;;20.07;61.25;99123.91;5110751;27;41434;-80
2021/09/13 07:22:41;;;;;;;1.73;1.50;;;;;;;20.24;61.25;99119.56;5146149;27;42899;-79
2021/09/13 07:25:12;;;;;;;1.40;1.30;;;;;;;20.74;60.76;99118.13;5129201;27;41427;-84
2021/09/13 07:27:40;;;;;;;1.80;1.70;;;;;;;21.23;59.34;99123.13;5128549;27;40920;-79
2021/09/13 07:30:09;;;;;;;1.87;1.40;;;;;;;21.40;58.35;99127.59;5129761;27;42459;-80
2021/09/13 07:32:38;;;;;;;2.37;1.67;;;;;;;21.42;57.53;99133.69;5127077;27;42842;-78
2021/09/13 07:35:07;;;;;;;1.30;1.20;;;;;;;21.46;57.59;99146.69;5126354;27;43230;-83
2021/09/13 07:37:36;;;;;;;1.20;1.10;;;;;;;21.64;56.37;99146.63;5107951;27;39393;-84
2021/09/13 07:40:04;;;;;;;1.87;1.73;;;;;;;21.76;56.60;99148.03;5131537;27;41743;-84
2021/09/13 07:42:34;;;;;;;1.87;1.50;;;;;;;21.83;56.60;99143.72;5126037;27;42472;-84
2021/09/13 07:45:02;;;;;;;2.03;1.20;;;;;;;22.06;56.08;99135.09;5107358;27;41613;-80
2021/09/13 07:47:31;;;;;;;1.20;1.10;;;;;;;22.55;55.44;99147.75;5125569;27;39934;-85
2021/09/13 07:49:58;;;;;;;1.40;1.30;;;;;;;23.15;54.44;99138.56;5125977;27;42126;-77
2021/09/13 07:52:26;;;;;;;1.20;1.10;;;;;;;24.08;51.63;99161.44;5123051;27;43764;-86
2021/09/13 07:54:54;;;;;;;1.00;1.00;;;;;;;24.61;51.09;99171.53;5128902;27;42371;-84
2021/09/13 07:57:21;;;;;;;5.23;4.40;;;;;;;25.36;48.63;99171.72;5115490;27;40862;-83
2021/09/13 07:59:50;;;;;;;1.67;1.53;;;;;;;25.71;47.29;99155.84;5138089;27;42141;-85
2021/09/13 08:02:18;;;;;;;1.30;1.20;;;;;;;25.96;46.83;99176.28;5107843;27;43086;-86
2021/09/13 08:04:47;;;;;;;2.07;1.37;;;;;;;26.58;45.79;99196.78;5110532;27;41274;-81
2021/09/13 08:07:14;;;;;;;1.03;1.03;;;;;;;26.37;45.45;99168.50;5132317;27;39117;-85
2021/09/13 08:09:41;;;;;;;1.13;1.13;;;;;;;26.24;45.83;99172.88;5138198;27;41717;-83
2021/09/13 08:12:09;;;;;;;1.73;1.63;;;;;;;26.38;45.90;99191.06;5145874;27;42725;-81
2021/09/13 08:14:44;;;;;;;1.60;1.50;;;;;;;26.26;46.05;99189.84;5141151;27;42201;-80
2021/09/13 08:17:14;;;;;;;1.40;1.27;;;;;;;26.20;46.11;99198.75;5126276;27;38925;-82
2021/09/13 08:19:44;;;;;;;1.27;1.17;;;;;;;26.09;46.19;99192.72;5126128;27;42906;-80
2021/09/13 08:22:13;;;;;;;1.43;1.07;;;;;;;26.29;46.33;99193.06;5124239;27;43101;-81
2021/09/13 08:24:41;;;;;;;1.10;1.00;;;;;;;26.48;46.33;99194.34;5109910;27;41259;-80
2021/09/13 08:27:21;;;;;;;1.37;1.17;;;;;;;26.98;44.29;99204.38;5134019;27;39930;-80
2021/09/13 08:29:48;;;;;;;1.93;1.33;;;;;;;27.29;43.49;99209.53;5133053;27;41188;-83
2021/09/13 08:32:18;;;;;;;1.20;1.10;;;;;;;27.65;43.25;99192.31;5106947;27;41645;-86
2021/09/13 08:34:45;;;;;;;1.40;1.30;;;;;;;28.32;42.04;99213.50;5108376;27;42507;-84
2021/09/13 08:37:13;;;;;;;1.50;1.40;;;;;;;29.12;40.65;99216.41;5132550;27;40049;-80
2021/09/13 08:39:40;;;;;;;1.63;1.53;;;;;;;30.29;38.62;99241.25;5125575;27;42336;-82
2021/09/13 08:42:08;;;;;;;1.37;1.23;;;;;;;31.73;36.14;99249.09;5124570;27;42721;-85
2021/09/13 08:44:36;;;;;;;1.30;1.20;;;;;;;33.25;32.74;99277.72;5127845;27;42413;-81
2021/09/13 08:47:06;;;;;;;1.63;1.53;;;;;;;34.55;31.08;99273.91;5132267;27;41001;-83
2021/09/13 08:49:37;;;;;;;1.50;1.40;;;;;;;35.16;29.50;99294.50;5125618;27;42211;-80
2021/09/13 08:52:06;;;;;;;1.10;1.10;;;;;;;34.83;30.08;99269.59;5123451;27;43148;-81
2021/09/13 08:54:36;;;;;;;1.40;1.30;;;;;;;33.86;31.32;99259.06;5108053;27;41445;-84
2021/09/13 08:57:05;;;;;;;0.87;0.87;;;;;;;32.98;32.82;99256.06;5124910;27;39793;-84
2021/09/13 08:59:35;;;;;;;1.00;1.00;;;;;;;32.89;33.11;99251.94;5128059;27;40624;-80
2021/09/13 09:02:04;;;;;;;1.20;1.10;;;;;;;32.81;33.54;99244.03;5124513;27;42761;-86
2021/09/13 09:04:33;;;;;;;1.20;1.10;;;;;;;32.32;34.17;99234.88;5112003;27;41617;-83
2021/09/13 09:07:10;;;;;;;1.10;1.00;;;;;;;32.79;33.36;99243.44;5134559;27;39268;-87
2021/09/13 09:09:37;;;;;;;1.43;1.33;;;;;;;34.10;30.43;99261.81;5122667;27;41654;-83
2021/09/13 09:12:09;;;;;;;2.50;2.23;;;;;;;34.83;29.64;99256.69;5125118;27;42818;-83
2021/09/13 09:14:41;;;;;;;1.63;1.37;;;;;;;34.84;29.55;99268.53;5130375;27;42258;-84
2021/09/13 09:17:13;;;;;;;1.27;1.10;;;;;;;33.83;30.87;99250.44;5110758;27;39242;-83
2021/09/13 09:19:41;;;;;;;0.87;0.87;;;;;;;33.09;32.64;99241.56;5110877;27;41053;-82
2021/09/13 09:22:25;;;;;;;0.90;0.90;;;;;;;32.52;32.86;99242.06;5128107;27;43086;-83
2021/09/13 09:24:54;;;;;;;0.93;0.93;;;;;;;32.40;33.28;99223.59;5137058;27;42447;-87
2021/09/13 09:27:23;;;;;;;1.27;1.17;;;;;;;32.01;33.58;99243.16;5119590;27;38906;-89
2021/09/13 09:29:51;;;;;;;0.93;0.93;;;;;;;31.43;34.59;99237.88;5129009;27;42220;-79
2021/09/13 09:32:21;;;;;;;0.70;0.70;;;;;;;31.06;35.67;99226.72;5128743;27;43296;-81
2021/09/13 09:34:56;;;;;;;1.07;0.93;;;;;;;30.79;36.05;99206.00;5126554;27;42236;-86
2021/09/13 09:37:25;;;;;;;2.10;1.20;;;;;;;30.56;35.84;99214.72;5128307;27;40840;-81
2021/09/13 09:39:56;;;;;;;1.03;0.97;;;;;;;30.11;36.17;99216.50;5128481;27;41848;-86
2021/09/13 09:42:40;;;;;;;1.10;1.00;;;;;;;29.63;37.10;99197.63;5116646;27;41799;-81
2021/09/13 09:45:25;;;;;;;1.20;1.10;;;;;;;29.39;37.00;99217.34;5133625;27;42623;-84
2021/09/13 09:48:05;;;;;;;1.17;1.10;;;;;;;29.01;37.72;99207.97;5134682;27;40167;-83
2021/09/13 09:50:33;;;;;;;0.90;0.80;;;;;;;28.81;38.16;99192.38;5137917;27;41787;-83
2021/09/13 09:53:16;;;;;;;1.17;1.07;;;;;;;28.76;38.35;99194.88;5119893;27;41890;-82
2021/09/13 09:55:49;;;;;;;1.40;0.90;;;;;;;28.74;38.41;99194.22;5116199;27;41719;-80
2021/09/13 09:58:17;;;;;;;1.10;1.00;;;;;;;28.85;38.63;99207.31;5130033;27;39962;-80
2021/09/13 10:00:46;;;;;;;2.07;1.07;;;;;;;28.82;38.60;99199.53;5137094;27;41019;-81
2021/09/13 10:03:30;;;;;;;1.27;1.10;;;;;;;28.66;37.47;99194.41;5119186;27;43160;-79
2021/09/13 10:05:57;;;;;;;1.03;1.03;;;;;;;28.61;37.80;99210.53;5135091;27;42195;-80
2021/09/13 10:08:27;;;;;;;1.20;1.10;;;;;;;28.62;36.73;99214.94;5137105;27;40874;-82
2021/09/13 10:10:55;;;;;;;1.77;0.90;;;;;;;28.57;37.69;99204.63;5135771;27;41786;-79
2021/09/13 10:13:23;;;;;;;1.10;0.97;;;;;;;28.56;38.25;99180.34;5118716;27;41953;-83
2021/09/13 10:15:51;;;;;;;0.90;0.90;;;;;;;28.72;37.81;99196.31;5114994;27;42224;-81
2021/09/13 10:18:19;;;;;;;0.80;0.80;;;;;;;29.03;37.76;99195.00;5122021;27;40493;-83
2021/09/13 10:20:47;;;;;;;0.87;0.73;;;;;;;29.57;36.33;99198.44;5137276;27;41652;-81
2021/09/13 10:23:16;;;;;;;1.07;0.97;;;;;;;30.35;36.47;99183.03;5131995;27;43421;-82
2021/09/13 10:25:45;;;;;;;1.40;1.30;;;;;;;30.88;35.52;99185.56;5144118;27;42856;-80
2021/09/13 10:28:12;;;;;;;2.00;1.40;;;;;;;31.08;34.71;99202.72;5130246;27;40673;-80
2021/09/13 10:30:51;;;;;;;1.23;0.83;;;;;;;31.82;33.74;99208.53;5134826;27;41632;-80
2021/09/13 10:33:18;;;;;;;1.07;1.07;;;;;;;33.13;31.64;99209.84;5132513;27;43598;-79
2021/09/13 10:35:54;;;;;;;0.97;0.90;;;;;;;34.17;30.20;99229.53;5136394;27;42937;-80
2021/09/13 10:38:41;;;;;;;1.10;1.00;;;;;;;34.85;28.82;99227.00;5105291;27;39328;-82
2021/09/13 10:41:11;;;;;;;0.90;0.90;;;;;;;35.78;28.73;99231.25;5122339;27;40771;-81
2021/09/13 10:44:04;;;;;;;1.10;1.00;;;;;;;36.47;27.11;99228.22;5118977;27;20695;-81
2021/09/13 10:47:02;;;;;;;0.73;0.73;;;;;;;36.83;27.05;99226.78;5133441;27;42998;-79
2021/09/13 10:49:32;;;;;;;1.30;1.20;;;;;;;37.21;26.18;99235.00;5107147;27;39116;-80
2021/09/13 10:52:33;;;;;;;1.10;1.00;;;;;;;37.44;26.00;99230.22;5111217;27;42475;-80
2021/09/13 10:55:28;;;;;;;0.90;0.90;;;;;;;37.27;26.12;99228.41;5116090;27;43159;-84
2021/09/13 10:58:04;;;;;;;0.90;0.90;;;;;;;37.56;25.92;99225.38;5133077;27;43586;-84
2021/09/13 11:00:58;;;;;;;0.95;0.95;;;;;;;37.55;25.26;99234.75;5134774;27;40935;-82
2021/09/13 11:03:36;;;;;;;0.83;0.83;;;;;;;37.59;24.70;99230.34;5120835;27;41638;-84
2021/09/13 11:06:24;;;;;;;0.93;0.93;;;;;;;37.60;25.75;99221.81;5116546;27;43653;-84
2021/09/13 11:09:00;;;;;;;0.80;0.80;;;;;;;37.94;24.57;99216.88;5141321;27;43252;-92
2021/09/13 11:11:31;;;;;;;0.80;0.80;;;;;;;38.07;24.95;99199.84;5112845;27;39605;-84
2021/09/13 11:14:03;;;;;;;0.85;0.85;;;;;;;38.43;24.66;99197.31;5117023;27;40636;-87
2021/09/13 11:16:33;;;;;;;0.93;0.88;;;;;;;38.65;23.86;99209.06;5114819;27;42685;-80
2021/09/13 11:19:08;;;;;;;0.90;0.90;;;;;;;38.63;24.44;99208.50;5140954;27;42861;-87
2021/09/13 11:21:40;;;;;;;1.67;0.75;;;;;;;38.34;23.78;99221.88;5128215;27;40951;-79
2021/09/13 11:24:11;;;;;;;1.00;1.00;;;;;;;38.50;24.29;99216.41;5132944;27;41667;-81
2021/09/13 11:26:42;;;;;;;1.23;1.17;;;;;;;39.04;23.91;99220.59;5132958;27;42910;-83
2021/09/13 11:29:13;;;;;;;3.17;2.72;;;;;;;39.19;24.24;99213.44;5122847;27;41083;-81
2021/09/13 11:31:45;;;;;;;1.58;1.48;;;;;;;39.17;23.36;99199.84;5127867;27;40250;-82
2021/09/13 11:34:24;;;;;;;1.00;1.00;;;;;;;39.24;24.00;99205.09;5120116;27;41218;-82
2021/09/13 11:36:56;;;;;;;0.80;0.80;;;;;;;40.28;23.12;99198.22;5116908;27;42471;-78
2021/09/13 11:39:26;;;;;;;0.82;0.82;;;;;;;41.60;21.68;99190.94;5130457;27;43181;-80
2021/09/13 11:41:58;;;;;;;0.90;0.90;;;;;;;43.06;20.17;99216.69;5144476;27;39038;-84
2021/09/13 11:44:29;;;;;;;0.80;0.80;;;;;;;43.55;18.53;99214.31;5112090;27;41318;-84
2021/09/13 11:47:00;;;;;;;0.65;0.65;;;;;;;43.87;17.78;99221.06;5111508;27;41856;-81
2021/09/13 11:49:31;;;;;;;0.70;0.70;;;;;;;45.01;17.79;99217.47;5129012;27;42423;-79
2021/09/13 11:52:12;;;;;;;0.88;0.88;;;;;;;46.15;16.13;99218.94;5108531;27;40198;-82
2021/09/13 11:54:43;;;;;;;0.70;0.70;;;;;;;47.02;15.96;99215.38;5130871;27;40407;-88